Time;durP1;ratioP1;P1;durP2;ratioP2;P2;SDS_P1;SDS_P2;PMS_P1;PMS_P2;Temp;Humidity;BMP_temperature;BMP_pressure;BME280_temperature;BME280_humidity;BME280_pressure;Samples;Min_cycle;Max_cycle;Signal;HPM_P1;HPM_P2
2022/06/06 00:01:57;;;;;;;8.45;3.83;;;;;;;19.48;45.22;101452.84;4997485;28;20033;-46
2022/06/06 00:04:24;;;;;;;4.75;3.92;;;;;;;19.40;45.35;101447.25;4998740;28;20744;-46
2022/06/06 00:06:52;;;;;;;4.97;3.90;;;;;;;19.40;45.45;101428.22;5000161;28;20042;-46
2022/06/06 00:09:18;;;;;;;5.20;4.45;;;;;;;19.36;45.44;101438.84;5002232;28;20037;-47
2022/06/06 00:11:44;;;;;;;6.45;3.80;;;;;;;19.36;45.60;101422.53;4998342;28;20026;-46
2022/06/06 00:14:12;;;;;;;10.52;4.35;;;;;;;19.37;45.63;101424.16;4998663;28;20029;-46
2022/06/06 00:16:38;;;;;;;5.70;3.95;;;;;;;19.32;45.74;101426.94;4999424;28;20037;-46
2022/06/06 00:19:04;;;;;;;4.55;4.07;;;;;;;19.29;45.74;101417.47;4998251;28;20030;-48
2022/06/06 00:21:30;;;;;;;6.38;4.10;;;;;;;19.26;45.96;101419.97;4998968;28;20487;-46
2022/06/06 00:23:59;;;;;;;5.45;3.53;;;;;;;19.23;45.68;101423.25;4996217;28;20022;-47
2022/06/06 00:26:28;;;;;;;34.05;5.82;;;;;;;19.22;46.18;101424.38;4996992;28;20483;-47
2022/06/06 00:28:54;;;;;;;9.25;3.80;;;;;;;19.20;46.14;101418.38;4996456;28;20045;-47
2022/06/06 00:36:48;;;;;;;5.82;4.00;;;;;;;19.11;46.32;101414.69;4995080;28;20474;-47
2022/06/06 00:39:17;;;;;;;4.25;3.85;;;;;;;19.07;46.70;101413.66;4999292;28;20029;-48
2022/06/06 00:41:46;;;;;;;6.15;4.43;;;;;;;19.00;46.96;101403.13;4998509;28;20026;-46
2022/06/06 00:44:15;;;;;;;5.85;4.00;;;;;;;18.97;47.28;101403.72;4996900;28;20100;-48
2022/06/06 00:46:46;;;;;;;4.95;4.20;;;;;;;18.94;47.30;101402.38;4996429;28;20395;-47
2022/06/06 00:49:31;;;;;;;7.75;4.38;;;;;;;18.88;47.57;101395.41;4998377;28;20037;-47
2022/06/06 00:51:57;;;;;;;4.40;4.00;;;;;;;18.89;47.27;101390.78;4997316;28;20248;-46
2022/06/06 00:54:23;;;;;;;4.88;4.35;;;;;;;18.86;47.38;101391.34;5000851;28;20036;-46
2022/06/06 00:57:03;;;;;;;5.38;3.88;;;;;;;18.83;47.70;101391.91;4995774;28;20034;-46
2022/06/06 00:59:33;;;;;;;4.93;4.07;;;;;;;18.83;47.75;101397.34;4998076;28;20361;-48
2022/06/06 01:02:00;;;;;;;7.40;3.83;;;;;;;18.79;47.78;101396.31;4995528;28;20558;-48
2022/06/06 01:04:28;;;;;;;6.00;3.75;;;;;;;18.70;47.74;101388.78;4993261;28;20435;-47
2022/06/06 01:06:54;;;;;;;4.20;3.53;;;;;;;18.73;47.80;101390.13;4986595;28;20018;-46
2022/06/06 01:09:22;;;;;;;5.38;3.97;;;;;;;18.74;47.63;101383.59;4997547;28;20029;-47
2022/06/06 01:11:51;;;;;;;6.50;3.67;;;;;;;18.77;47.25;101377.59;4993516;28;20049;-47
2022/06/06 01:14:22;;;;;;;4.35;3.80;;;;;;;18.78;47.20;101386.53;4990911;28;20087;-46
2022/06/06 01:17:04;;;;;;;10.80;3.97;;;;;;;18.75;47.54;101381.69;4994094;28;20467;-46
2022/06/06 01:19:54;;;;;;;5.00;4.00;;;;;;;18.74;47.47;101378.16;4994355;28;20036;-46
2022/06/06 01:23:01;;;;;;;4.95;3.72;;;;;;;18.75;47.31;101371.63;4994183;28;20373;-47
2022/06/06 01:25:39;;;;;;;4.22;3.83;;;;;;;18.82;47.33;101371.28;4984414;28;20057;-47
2022/06/06 01:28:26;;;;;;;8.60;3.90;;;;;;;18.82;47.44;101374.00;4995067;28;20080;-47
2022/06/06 01:30:58;;;;;;;4.30;3.40;;;;;;;18.82;46.93;101369.38;4987185;28;20499;-48
2022/06/06 01:33:23;;;;;;;6.22;3.47;;;;;;;18.81;47.44;101359.63;4979316;28;20025;-46
2022/06/06 01:35:52;;;;;;;4.22;3.47;;;;;;;18.79;47.17;101361.00;4986129;28;20030;-46
2022/06/06 01:38:23;;;;;;;4.60;3.33;;;;;;;18.77;47.37;101358.59;4984081;28;20369;-46
2022/06/06 01:41:03;;;;;;;4.00;3.60;;;;;;;18.73;47.01;101354.03;4985782;28;20029;-46
2022/06/06 01:43:48;;;;;;;4.25;3.85;;;;;;;18.69;46.89;101345.66;4983766;28;20351;-46
2022/06/06 01:46:22;;;;;;;4.57;3.85;;;;;;;18.71;46.94;101351.59;4984474;28;20158;-46
2022/06/06 01:48:49;;;;;;;6.20;4.35;;;;;;;18.69;47.08;101348.38;4998460;28;20443;-46
2022/06/06 01:51:18;;;;;;;8.40;3.80;;;;;;;18.68;47.10;101338.59;4997405;28;20025;-46
2022/06/06 01:53:44;;;;;;;5.55;4.20;;;;;;;18.66;46.93;101344.28;5001560;28;20056;-46
2022/06/06 01:56:15;;;;;;;4.60;3.40;;;;;;;18.62;46.42;101342.41;5001109;28;20828;-48
2022/06/06 01:58:41;;;;;;;4.80;3.40;;;;;;;18.65;46.66;101341.88;5000832;28;20165;-46
2022/06/06 02:01:07;;;;;;;8.20;3.65;;;;;;;18.64;46.38;101341.06;5003820;28;20022;-47
2022/06/06 02:03:33;;;;;;;4.32;3.17;;;;;;;18.63;46.39;101331.31;5003278;28;20029;-46
2022/06/06 02:06:02;;;;;;;5.75;3.47;;;;;;;18.59;46.35;101329.44;5004258;28;20038;-46
2022/06/06 02:08:28;;;;;;;4.60;3.30;;;;;;;18.52;46.32;101321.66;5003253;28;20468;-47
2022/06/06 02:10:54;;;;;;;3.38;2.95;;;;;;;18.50;46.48;101323.03;5002805;28;20053;-46
2022/06/06 02:13:20;;;;;;;3.08;2.78;;;;;;;18.46;46.60;101321.97;5001328;28;20073;-47
2022/06/06 02:15:46;;;;;;;4.65;3.63;;;;;;;18.39;46.70;101311.47;5002288;28;20041;-46
2022/06/06 02:18:12;;;;;;;5.97;3.65;;;;;;;18.39;46.50;101312.25;5002682;28;20022;-47
2022/06/06 02:20:37;;;;;;;3.58;3.00;;;;;;;18.38;46.40;101316.06;5002930;28;20105;-46
2022/06/06 02:23:03;;;;;;;4.47;3.05;;;;;;;18.39;46.43;101312.25;5006219;28;20109;-46
2022/06/06 02:25:30;;;;;;;5.10;2.90;;;;;;;18.37;46.36;101314.47;4999251;28;20040;-46
2022/06/06 02:27:56;;;;;;;5.03;3.25;;;;;;;18.37;46.62;101308.22;5000936;28;20022;-46
2022/06/06 02:30:29;;;;;;;3.08;2.78;;;;;;;18.31;46.68;101304.75;5002789;28;20447;-46
2022/06/06 02:32:54;;;;;;;5.15;3.38;;;;;;;18.29;46.49;101306.94;5000783;28;20113;-46
2022/06/06 02:35:24;;;;;;;4.93;3.22;;;;;;;18.25;46.81;101300.47;5000096;28;20516;-48
2022/06/06 02:37:50;;;;;;;3.63;3.03;;;;;;;18.21;47.06;101299.41;5003393;28;20018;-46
2022/06/06 02:40:18;;;;;;;3.33;3.03;;;;;;;18.11;46.99;101296.78;5003370;28;20034;-46
2022/06/06 02:42:45;;;;;;;4.15;3.70;;;;;;;18.17;46.91;101300.28;5002151;28;20037;-46
2022/06/06 02:45:15;;;;;;;4.85;2.88;;;;;;;18.15;46.95;101295.16;5002853;28;20033;-46
2022/06/06 02:47:41;;;;;;;5.20;2.85;;;;;;;18.15;46.89;101295.16;4998611;28;20061;-47
2022/06/06 02:50:08;;;;;;;4.13;3.20;;;;;;;18.11;46.77;101299.50;5003708;28;20129;-46
2022/06/06 02:52:34;;;;;;;3.35;2.92;;;;;;;18.15;46.68;101300.56;4996525;28;20030;-47
2022/06/06 02:55:01;;;;;;;3.67;3.38;;;;;;;18.19;46.93;101308.94;4999904;28;20177;-46
2022/06/06 02:57:27;;;;;;;3.33;3.03;;;;;;;18.21;46.67;101310.28;4999794;28;20022;-47
2022/06/06 02:59:56;;;;;;;3.33;3.03;;;;;;;18.23;46.80;101324.34;5003964;28;20026;-48
2022/06/06 03:02:22;;;;;;;3.83;3.33;;;;;;;18.24;46.74;101338.72;5002720;28;20026;-47
2022/06/06 03:04:47;;;;;;;7.43;3.47;;;;;;;18.29;46.65;101346.81;5000338;28;20026;-47
2022/06/06 03:07:48;;;;;;;4.40;3.22;;;;;;;18.28;46.76;101351.41;5002199;28;20029;-46
2022/06/06 03:10:45;;;;;;;4.25;3.22;;;;;;;18.28;46.77;101346.00;4979700;28;20041;-46
2022/06/06 03:13:39;;;;;;;4.05;3.55;;;;;;;18.29;46.70;101346.81;5000189;28;20157;-46
2022/06/06 03:22:38;;;;;;;5.22;3.38;;;;;;;18.12;47.56;101341.78;5001783;28;20061;-46
2022/06/06 03:25:11;;;;;;;5.75;3.55;;;;;;;18.02;48.03;101344.59;5000418;28;20022;-46
2022/06/06 03:27:50;;;;;;;5.72;3.88;;;;;;;17.93;48.01;101347.09;4997618;28;20022;-46
2022/06/06 03:30:24;;;;;;;7.93;3.30;;;;;;;17.90;47.97;101346.84;4998788;28;20117;-47
2022/06/06 03:32:55;;;;;;;6.20;3.20;;;;;;;17.86;48.13;101345.81;5003145;28;20084;-46
2022/06/06 03:35:31;;;;;;;6.05;3.50;;;;;;;17.80;48.42;101356.69;5003215;28;20033;-46
2022/06/06 03:38:12;;;;;;;6.88;3.28;;;;;;;17.75;48.53;101355.91;5004055;28;20106;-46
2022/06/06 03:40:54;;;;;;;4.43;3.22;;;;;;;17.79;48.46;101356.97;4999373;28;20029;-47
2022/06/06 03:43:34;;;;;;;3.67;2.95;;;;;;;17.75;48.60;101367.53;4999080;28;20076;-48
2022/06/06 03:46:19;;;;;;;7.43;3.70;;;;;;;17.71;49.20;101363.78;4995923;28;20450;-45
2022/06/06 03:49:30;;;;;;;3.72;3.25;;;;;;;17.70;49.65;101364.88;4998407;28;20529;-47
2022/06/06 03:52:03;;;;;;;5.70;3.60;;;;;;;17.67;49.58;101357.28;4980328;28;20036;-48
2022/06/06 03:54:35;;;;;;;4.43;3.28;;;;;;;17.64;50.60;101355.13;4999123;28;20072;-46
2022/06/06 03:57:05;;;;;;;4.65;3.08;;;;;;;17.64;50.89;101357.03;4996769;28;20351;-45
2022/06/06 03:59:31;;;;;;;6.05;3.50;;;;;;;17.65;51.84;101355.94;4998767;28;20072;-46
2022/06/06 04:02:03;;;;;;;8.57;3.88;;;;;;;17.60;53.43;101359.50;5000448;28;20034;-47
2022/06/06 04:04:30;;;;;;;5.38;3.35;;;;;;;17.48;53.17;101361.72;4998066;28;21470;-46
2022/06/06 04:06:58;;;;;;;5.45;3.72;;;;;;;17.48;53.67;101361.72;4997561;28;20038;-46
2022/06/06 04:09:25;;;;;;;4.82;3.63;;;;;;;17.39;55.10;101368.81;4999566;28;20151;-46
2022/06/06 04:12:16;;;;;;;5.82;3.40;;;;;;;17.31;56.43;101363.97;4998316;28;20025;-46
2022/06/06 04:15:06;;;;;;;7.32;4.15;;;;;;;17.25;55.89;101367.81;5001706;28;20034;-46
2022/06/06 04:17:44;;;;;;;6.32;3.95;;;;;;;17.25;55.84;101362.41;5000329;28;20021;-46
2022/06/06 04:20:24;;;;;;;5.05;3.20;;;;;;;17.26;55.10;101370.25;5000035;28;20087;-46
2022/06/06 04:23:05;;;;;;;5.43;3.90;;;;;;;17.29;55.09;101371.56;5001261;28;20041;-46
2022/06/06 04:25:39;;;;;;;6.35;4.22;;;;;;;17.31;54.85;101350.44;4998905;28;20547;-46
2022/06/06 04:28:39;;;;;;;5.15;4.22;;;;;;;17.22;57.08;101372.66;4997721;28;20033;-47
2022/06/06 04:31:20;;;;;;;5.45;4.20;;;;;;;17.29;56.27;101371.56;4996782;28;20034;-47
2022/06/06 04:34:01;;;;;;;5.68;4.22;;;;;;;17.20;58.68;101368.63;4998373;28;20038;-46
2022/06/06 04:36:44;;;;;;;6.38;4.30;;;;;;;17.09;58.16;101378.69;4999423;28;20033;-47
2022/06/06 04:39:58;;;;;;;6.80;4.53;;;;;;;17.02;60.00;101383.56;5002146;28;20017;-46
2022/06/06 04:43:16;;;;;;;5.07;4.25;;;;;;;17.00;62.14;101383.03;4983333;28;20037;-47
2022/06/06 04:46:07;;;;;;;6.65;4.55;;;;;;;16.96;62.14;101390.09;4972772;28;20037;-47
2022/06/06 04:48:34;;;;;;;5.13;4.50;;;;;;;16.96;61.33;101392.81;4998718;28;20034;-46
2022/06/06 04:51:01;;;;;;;5.47;4.20;;;;;;;16.90;61.90;101399.31;4996421;28;20261;-47
2022/06/06 04:53:29;;;;;;;4.60;4.20;;;;;;;16.88;62.82;101396.09;4996920;28;20457;-47
2022/06/06 04:55:56;;;;;;;5.28;4.78;;;;;;;16.88;63.08;101396.09;4998607;28;20264;-47
2022/06/06 04:58:27;;;;;;;6.88;5.13;;;;;;;16.80;65.73;101404.75;5002282;28;20265;-48
2022/06/06 05:00:54;;;;;;;5.88;4.55;;;;;;;16.78;66.38;101406.91;5001782;28;20424;-47
2022/06/06 05:03:20;;;;;;;5.07;4.43;;;;;;;16.74;67.39;101411.25;4998105;28;20074;-48
2022/06/06 05:06:11;;;;;;;9.23;6.03;;;;;;;16.73;70.21;101423.16;4996219;28;20180;-47
2022/06/06 05:08:40;;;;;;;6.22;5.03;;;;;;;16.75;68.43;101421.00;4996951;28;20061;-47
2022/06/06 05:11:21;;;;;;;6.15;5.50;;;;;;;16.78;69.25;101418.56;4999311;28;20061;-47
2022/06/06 05:13:56;;;;;;;6.47;5.10;;;;;;;16.78;68.60;101423.16;4997587;28;20069;-48
2022/06/06 05:16:41;;;;;;;6.25;5.38;;;;;;;16.73;70.13;101420.47;4999414;28;20026;-49
2022/06/06 05:19:38;;;;;;;6.97;5.53;;;;;;;16.69;71.38;101424.78;5001596;28;20028;-47
2022/06/06 05:22:22;;;;;;;8.57;6.15;;;;;;;16.69;70.56;101430.19;4997976;28;20049;-48
2022/06/06 05:25:15;;;;;;;6.20;4.93;;;;;;;16.71;70.63;101428.84;5001572;28;20093;-47
2022/06/06 05:27:44;;;;;;;11.40;5.80;;;;;;;16.71;69.39;101428.84;4995060;28;20022;-47
2022/06/06 05:30:17;;;;;;;7.07;6.38;;;;;;;16.66;69.38;101425.28;4999212;28;20109;-47
2022/06/06 05:33:03;;;;;;;7.28;6.00;;;;;;;16.61;69.90;101426.13;4997278;28;20443;-47
2022/06/06 05:36:07;;;;;;;8.90;6.55;;;;;;;16.54;70.81;101429.09;4997007;28;20033;-47
2022/06/06 05:39:00;;;;;;;11.80;7.10;;;;;;;16.38;71.55;101437.47;4997957;28;20030;-47
2022/06/06 05:42:04;;;;;;;9.57;7.13;;;;;;;16.26;73.42;101440.44;4995271;28;20490;-48
2022/06/06 05:44:42;;;;;;;9.23;6.72;;;;;;;16.27;72.82;101451.00;4994909;28;20038;-47
2022/06/06 05:47:14;;;;;;;9.93;6.85;;;;;;;16.17;75.30;101459.09;5000161;28;20030;-47
2022/06/06 05:49:42;;;;;;;8.65;6.95;;;;;;;16.07;74.96;101458.25;4996970;28;20100;-48
2022/06/06 05:52:57;;;;;;;9.38;7.55;;;;;;;15.99;76.48;101465.81;5000266;28;20117;-48
2022/06/06 05:55:31;;;;;;;9.32;7.28;;;;;;;15.88;77.47;101449.84;4943056;28;20035;-49
2022/06/06 05:58:15;;;;;;;9.02;7.13;;;;;;;15.86;78.45;101455.50;4997189;28;20048;-47
2022/06/06 06:00:46;;;;;;;9.73;8.20;;;;;;;15.86;77.61;101452.81;4999018;28;20401;-47
2022/06/06 06:03:43;;;;;;;9.15;7.85;;;;;;;15.84;78.86;101451.44;4995683;28;20029;-47
2022/06/06 06:06:42;;;;;;;10.77;8.27;;;;;;;15.82;79.46;101445.50;4995327;28;20018;-50
2022/06/06 06:09:35;;;;;;;13.07;9.20;;;;;;;15.77;80.16;101448.97;4999838;28;20506;-47
2022/06/06 06:12:11;;;;;;;10.30;8.88;;;;;;;15.70;81.54;101451.13;4996221;28;20061;-47
2022/06/06 06:15:18;;;;;;;11.93;9.40;;;;;;;15.71;82.65;101450.06;5000608;28;20036;-48
2022/06/06 06:17:48;;;;;;;11.00;8.90;;;;;;;15.70;82.64;101456.53;4937345;29;20084;-47
2022/06/06 06:20:18;;;;;;;11.85;8.50;;;;;;;15.73;82.20;101464.09;4988456;28;20036;-47
2022/06/06 06:22:56;;;;;;;14.07;9.60;;;;;;;15.70;82.94;101462.75;5000225;28;20026;-48
2022/06/06 06:25:24;;;;;;;11.38;9.63;;;;;;;15.77;81.98;101462.50;5002528;28;20603;-47
2022/06/06 06:27:53;;;;;;;12.63;10.45;;;;;;;15.70;83.70;101459.22;5003549;28;20046;-49
2022/06/06 06:30:19;;;;;;;14.55;9.63;;;;;;;15.74;83.57;101462.22;4997803;28;20372;-49
2022/06/06 06:32:48;;;;;;;15.93;10.48;;;;;;;15.75;84.31;101466.53;5003198;28;20391;-47
2022/06/06 06:35:31;;;;;;;12.82;10.80;;;;;;;15.70;85.07;101465.44;5001543;28;20058;-47
2022/06/06 06:38:21;;;;;;;14.85;11.25;;;;;;;15.71;86.25;101474.38;5001230;28;20053;-50
2022/06/06 06:41:01;;;;;;;13.70;10.77;;;;;;;15.70;86.86;101478.97;4997524;28;20064;-47
2022/06/06 06:43:56;;;;;;;14.40;11.02;;;;;;;15.68;88.34;101485.69;5004050;28;20080;-50
2022/06/06 06:46:32;;;;;;;14.02;10.25;;;;;;;15.61;89.85;101490.50;5002313;28;20034;-47
2022/06/06 06:49:14;;;;;;;13.45;11.50;;;;;;;15.58;90.38;101491.00;4998377;28;20034;-47
2022/06/06 06:51:45;;;;;;;14.85;11.73;;;;;;;15.58;90.42;101494.53;4999426;28;20072;-47
2022/06/06 06:54:44;;;;;;;16.58;11.45;;;;;;;15.59;91.15;101500.78;5000937;28;20022;-47
2022/06/06 06:57:25;;;;;;;16.30;12.45;;;;;;;15.67;90.57;101505.69;4998741;28;20033;-47
2022/06/06 07:00:15;;;;;;;15.32;12.23;;;;;;;15.77;90.40;101497.63;5003762;28;20474;-47
2022/06/06 07:08:45;;;;;;;17.00;13.00;;;;;;;16.00;90.76;101507.97;5000935;28;20036;-47
2022/06/06 07:11:52;;;;;;;16.35;12.25;;;;;;;16.09;91.55;101508.25;5002778;28;20026;-47
2022/06/06 07:14:39;;;;;;;17.98;14.00;;;;;;;16.16;91.20;101497.22;4998580;28;20121;-47
2022/06/06 07:17:06;;;;;;;16.50;13.70;;;;;;;16.21;90.83;101489.91;5001988;28;20765;-47
2022/06/06 07:19:42;;;;;;;16.00;13.43;;;;;;;16.33;90.70;101497.75;4998559;28;20037;-47
2022/06/06 07:22:09;;;;;;;17.27;14.25;;;;;;;16.41;90.87;101491.84;4999613;28;20702;-48
2022/06/06 07:24:35;;;;;;;19.20;14.98;;;;;;;16.45;91.41;101481.28;4999808;28;20038;-47
2022/06/06 07:27:01;;;;;;;18.83;15.02;;;;;;;16.50;91.82;101482.09;5000271;28;20021;-47
2022/06/06 07:29:27;;;;;;;20.08;15.15;;;;;;;16.49;93.21;101483.19;4998866;28;20273;-47
2022/06/06 07:32:09;;;;;;;19.80;15.82;;;;;;;16.55;93.47;101484.03;4996005;28;20025;-47
2022/06/06 07:35:00;;;;;;;18.80;15.13;;;;;;;16.60;93.83;101481.31;4997925;28;20080;-47
2022/06/06 07:37:35;;;;;;;22.80;16.58;;;;;;;16.70;94.18;101485.94;5002917;28;20032;-47
2022/06/06 07:40:09;;;;;;;22.48;17.42;;;;;;;16.75;95.32;101475.13;5000277;28;20029;-47
2022/06/06 07:42:44;;;;;;;19.65;16.30;;;;;;;16.82;95.40;101479.16;5001752;28;20117;-47
2022/06/06 07:45:24;;;;;;;20.92;16.65;;;;;;;16.91;94.94;101484.84;4999131;28;20088;-47
2022/06/06 07:48:25;;;;;;;23.10;17.35;;;;;;;16.98;95.41;101488.09;4997930;28;20037;-48
2022/06/06 07:51:11;;;;;;;20.10;16.42;;;;;;;17.05;96.01;101474.25;4998347;28;20030;-47
2022/06/06 07:53:53;;;;;;;21.58;17.58;;;;;;;17.17;95.51;101475.59;4997537;28;20048;-47
2022/06/06 07:56:29;;;;;;;22.17;17.10;;;;;;;17.28;94.86;101470.97;4997374;28;20033;-48
2022/06/06 07:59:20;;;;;;;19.75;17.55;;;;;;;17.37;94.66;101468.50;4999675;28;20676;-47
2022/06/06 08:02:05;;;;;;;20.42;17.00;;;;;;;17.51;94.59;101466.81;4995935;28;20488;-49
2022/06/06 08:04:30;;;;;;;21.92;18.27;;;;;;;17.61;94.15;101466.81;4997199;28;20030;-47
2022/06/06 08:07:29;;;;;;;22.05;18.70;;;;;;;17.70;95.20;101467.84;4998697;28;20044;-47
2022/06/06 08:10:32;;;;;;;21.40;17.08;;;;;;;17.77;95.02;101472.97;5003485;28;20030;-47
2022/06/06 08:13:13;;;;;;;19.42;17.02;;;;;;;17.77;95.86;101475.69;4997998;28;20030;-47
2022/06/06 08:16:10;;;;;;;21.88;18.08;;;;;;;17.85;94.70;101479.72;4996924;28;20093;-47
2022/06/06 08:19:07;;;;;;;19.92;17.40;;;;;;;17.93;94.43;101474.50;4994521;28;20026;-47
2022/06/06 08:21:46;;;;;;;19.80;16.90;;;;;;;18.07;94.14;101477.44;4978298;28;20034;-47
2022/06/06 08:24:16;;;;;;;55.80;38.50;;;;;;;18.26;94.40;101474.88;4998331;28;20478;-47
2022/06/06 08:26:45;;;;;;;29.63;24.08;;;;;;;18.42;94.23;101479.09;5003803;28;20399;-47
2022/06/06 08:29:11;;;;;;;20.42;17.17;;;;;;;18.65;93.87;101472.16;5000473;28;20038;-46
2022/06/06 08:31:37;;;;;;;18.45;15.85;;;;;;;18.84;93.41;101473.06;5001364;28;20022;-46
2022/06/06 08:34:04;;;;;;;20.55;16.45;;;;;;;19.09;92.79;101474.75;4993849;28;20029;-46
2022/06/06 08:36:37;;;;;;;17.13;15.27;;;;;;;19.35;92.44;101471.75;4994210;28;20071;-48
2022/06/06 08:39:25;;;;;;;17.75;15.30;;;;;;;19.38;90.13;101473.88;5001003;28;20026;-48
2022/06/06 08:42:00;;;;;;;16.33;14.63;;;;;;;19.46;88.15;101479.50;5001855;28;20025;-48
2022/06/06 08:44:29;;;;;;;17.42;13.38;;;;;;;19.60;87.56;101476.94;4997097;28;20021;-48
2022/06/06 08:47:39;;;;;;;17.00;12.95;;;;;;;19.65;85.78;101471.41;4997962;28;20121;-49
2022/06/06 08:50:46;;;;;;;14.73;12.23;;;;;;;19.72;84.84;101476.50;4997376;28;20037;-48
2022/06/06 08:53:56;;;;;;;15.13;12.63;;;;;;;19.78;82.45;101478.88;4996279;28;20478;-48
2022/06/06 08:56:36;;;;;;;15.50;12.68;;;;;;;20.00;82.41;101472.84;4955067;28;20144;-47
2022/06/06 08:59:16;;;;;;;169.48;111.70;;;;;;;20.24;82.02;101483.66;4955467;28;20038;-48
2022/06/06 09:02:11;;;;;;;31.10;24.40;;;;;;;20.29;80.84;101474.59;4987296;28;20038;-49
2022/06/06 09:04:54;;;;;;;15.25;13.25;;;;;;;20.41;80.66;101473.06;4978538;28;20044;-47
2022/06/06 09:07:42;;;;;;;14.82;11.52;;;;;;;20.43;79.22;101467.34;4996849;28;20026;-47
2022/06/06 09:10:45;;;;;;;12.85;11.48;;;;;;;20.45;78.34;101473.28;4996295;28;20030;-49
2022/06/06 09:13:35;;;;;;;13.00;10.25;;;;;;;20.45;77.38;101471.38;4996998;28;20033;-49
2022/06/06 09:16:01;;;;;;;10.55;9.43;;;;;;;20.39;76.59;101477.16;4992903;28;21507;-47
2022/06/06 09:18:49;;;;;;;10.73;9.63;;;;;;;20.37;76.51;101484.81;4995746;28;20131;-48
2022/06/06 09:21:26;;;;;;;11.13;10.02;;;;;;;20.34;74.86;101475.34;5002784;28;21116;-47
2022/06/06 09:24:14;;;;;;;11.63;9.75;;;;;;;20.43;74.54;101470.06;5002612;28;20143;-47
2022/06/06 09:27:28;;;;;;;11.18;10.05;;;;;;;20.52;74.19;101476.47;5000650;28;20069;-47
2022/06/06 09:30:20;;;;;;;11.38;9.27;;;;;;;20.75;74.30;101483.69;4987660;28;20074;-48
2022/06/06 09:33:13;;;;;;;13.45;9.45;;;;;;;20.86;72.96;101476.16;4995356;28;20030;-45
2022/06/06 09:36:19;;;;;;;10.35;8.98;;;;;;;21.05;72.09;101478.81;4995849;28;20084;-48
2022/06/06 09:39:11;;;;;;;12.38;8.68;;;;;;;21.14;71.24;101482.44;4993294;28;20355;-50
2022/06/06 09:41:40;;;;;;;10.40;9.35;;;;;;;21.21;70.78;101487.50;4994468;28;20479;-50
2022/06/06 09:44:38;;;;;;;11.77;9.50;;;;;;;21.21;69.69;101485.59;4995258;28;20116;-48
2022/06/06 09:47:41;;;;;;;10.20;9.05;;;;;;;21.18;69.50;101482.66;4992832;28;20029;-47
2022/06/06 09:50:35;;;;;;;11.57;9.35;;;;;;;21.19;69.39;101485.09;4997038;28;20141;-48
2022/06/06 09:53:27;;;;;;;10.93;9.85;;;;;;;21.36;70.40;101482.63;4958856;28;20094;-50
2022/06/06 09:59:36;;;;;;;9.82;8.82;;;;;;;21.55;69.48;101482.50;5000342;28;20069;-47
2022/06/06 10:02:24;;;;;;;10.77;9.68;;;;;;;21.55;69.10;101484.44;5003998;28;20044;-49
2022/06/06 10:05:10;;;;;;;11.90;9.35;;;;;;;21.57;69.12;101479.47;5000453;28;20044;-47
2022/06/06 10:08:13;;;;;;;10.50;9.43;;;;;;;21.63;69.06;101479.06;5002827;28;20383;-47
2022/06/06 10:10:42;;;;;;;10.27;9.20;;;;;;;21.71;69.28;101480.25;5000883;28;20121;-50
2022/06/06 10:13:22;;;;;;;10.25;8.40;;;;;;;21.71;68.23;101480.25;5002086;28;20037;-48
2022/06/06 10:16:10;;;;;;;10.07;9.05;;;;;;;21.80;67.63;101470.25;5000681;28;20034;-47
2022/06/06 10:18:39;;;;;;;10.30;8.75;;;;;;;22.13;68.05;101473.63;5002262;28;20022;-47
2022/06/06 10:21:25;;;;;;;10.10;8.40;;;;;;;22.41;65.86;101473.53;5003065;28;20415;-49
2022/06/06 10:24:00;;;;;;;10.07;8.98;;;;;;;22.50;65.69;101469.75;5002697;28;20262;-48
2022/06/06 10:26:38;;;;;;;11.38;10.18;;;;;;;22.45;65.22;101478.06;5000786;28;20109;-48
2022/06/06 10:29:18;;;;;;;10.60;8.70;;;;;;;22.45;63.80;101474.53;5001058;28;20034;-48
2022/06/06 10:32:10;;;;;;;11.20;8.07;;;;;;;22.43;62.39;101477.53;5001932;28;20030;-47
2022/06/06 10:34:42;;;;;;;9.60;8.20;;;;;;;22.60;62.30;101474.94;5000433;28;20117;-48
2022/06/06 10:37:48;;;;;;;8.52;7.63;;;;;;;22.92;63.60;101482.06;5000195;28;20338;-48
2022/06/06 10:40:23;;;;;;;8.45;7.32;;;;;;;23.18;63.10;101482.22;5001673;28;20132;-48
2022/06/06 10:43:02;;;;;;;;;;;;;;;23.10;60.95;101482.97;5004674;28;20484;-47
2022/06/06 10:45:37;;;;;;;8.13;7.30;;;;;;;23.14;61.75;101485.88;4999723;28;20004;-49
2022/06/06 10:48:21;;;;;;;10.55;7.75;;;;;;;22.95;59.33;101480.66;4998638;28;20034;-51
2022/06/06 10:54:31;;;;;;;8.02;7.22;;;;;;;22.81;59.51;101488.09;5001958;28;20076;-48
2022/06/06 10:57:37;;;;;;;9.35;7.07;;;;;;;22.90;60.74;101481.59;5001899;28;20034;-49
2022/06/06 11:00:05;;;;;;;;;;;;;;;22.88;60.71;101483.84;5000947;28;20092;-47
2022/06/06 11:02:37;;;;;;;10.00;7.32;;;;;;;23.13;59.99;101482.34;5001883;28;20071;-46
2022/06/06 11:05:30;;;;;;;8.65;7.30;;;;;;;23.18;58.96;101474.03;4996319;28;20042;-47
2022/06/06 11:08:20;;;;;;;9.02;8.02;;;;;;;23.16;59.03;101486.38;5002775;28;20034;-50
2022/06/06 11:11:04;;;;;;;8.40;7.18;;;;;;;22.90;57.71;101472.59;5001798;28;20030;-47
2022/06/06 11:13:49;;;;;;;7.95;7.15;;;;;;;22.83;58.25;101481.25;5000388;28;20164;-47
2022/06/06 11:16:29;;;;;;;8.45;7.15;;;;;;;22.99;59.38;101480.84;5001615;28;20502;-48
2022/06/06 11:19:13;;;;;;;8.68;6.93;;;;;;;23.12;58.96;101479.91;5001746;28;20037;-48
2022/06/06 11:21:41;;;;;;;8.00;7.15;;;;;;;23.11;58.42;101473.66;4998853;28;20033;-46
2022/06/06 11:24:13;;;;;;;8.20;7.15;;;;;;;23.01;57.42;101476.69;5000214;28;20062;-47
2022/06/06 11:27:09;;;;;;;8.15;7.35;;;;;;;23.00;57.21;101480.53;5002154;28;20029;-47
2022/06/06 11:30:03;;;;;;;10.80;7.28;;;;;;;23.21;56.67;101478.84;5000742;28;20036;-48
2022/06/06 11:33:11;;;;;;;7.93;6.50;;;;;;;23.59;56.20;101478.38;4998296;28;20045;-48
2022/06/06 11:35:45;;;;;;;8.35;6.30;;;;;;;24.00;55.63;101479.88;4998140;28;20405;-50
2022/06/06 11:38:34;;;;;;;7.35;6.60;;;;;;;24.21;54.62;101472.63;5000819;28;20050;-49
2022/06/06 11:41:09;;;;;;;8.55;6.68;;;;;;;24.04;52.23;101483.56;5000335;28;20026;-48
2022/06/06 11:44:23;;;;;;;7.10;6.30;;;;;;;23.86;53.09;101481.94;4999495;28;20485;-47
2022/06/06 11:47:16;;;;;;;7.22;6.25;;;;;;;23.75;54.26;101476.78;4945091;28;20031;-48
2022/06/06 11:50:03;;;;;;;7.25;5.93;;;;;;;23.67;53.86;101480.31;5001964;28;20442;-49
2022/06/06 11:52:38;;;;;;;6.50;5.85;;;;;;;23.69;54.85;101483.53;4998420;28;20065;-48
2022/06/06 11:55:29;;;;;;;7.60;6.25;;;;;;;23.72;55.84;101482.91;5001128;28;20048;-48
2022/06/06 11:58:13;;;;;;;7.97;6.65;;;;;;;23.59;55.91;101483.03;5000344;28;20499;-51
2022/06/06 12:01:14;;;;;;;7.80;7.00;;;;;;;23.49;56.05;101487.63;5000143;28;20034;-51
2022/06/06 12:03:51;;;;;;;7.10;6.40;;;;;;;23.51;55.94;101485.38;4979878;28;20159;-48
2022/06/06 12:06:23;;;;;;;7.43;6.30;;;;;;;23.56;55.82;101483.63;4991196;28;20105;-51
2022/06/06 12:08:57;;;;;;;43.72;30.88;;;;;;;23.69;55.45;101478.03;4994295;28;20029;-48
2022/06/06 12:11:58;;;;;;;14.90;10.90;;;;;;;23.80;54.65;101482.09;4998919;28;20476;-48
2022/06/06 12:15:00;;;;;;;41.22;29.33;;;;;;;23.78;55.00;101481.63;4988388;28;20029;-48
2022/06/06 12:17:41;;;;;;;7.50;6.78;;;;;;;23.83;55.45;101482.59;4992410;28;20036;-49
2022/06/06 12:20:45;;;;;;;24.30;18.15;;;;;;;23.66;54.29;101478.69;4989298;28;20033;-47
2022/06/06 12:23:48;;;;;;;42.20;31.73;;;;;;;23.80;54.83;101479.38;4996513;28;20385;-49
2022/06/06 12:26:19;;;;;;;77.90;52.20;;;;;;;23.90;53.85;101477.47;5004063;28;20073;-48
2022/06/06 12:29:10;;;;;;;15.15;11.13;;;;;;;24.01;53.67;101465.06;5002582;28;20500;-51
2022/06/06 12:31:56;;;;;;;7.95;6.65;;;;;;;24.21;54.18;101467.16;4996755;28;20049;-51
2022/06/06 12:34:47;;;;;;;7.55;6.32;;;;;;;24.48;52.72;101467.97;4991132;28;20104;-52
2022/06/06 12:37:18;;;;;;;7.28;6.38;;;;;;;24.51;53.02;101459.09;4995372;28;20797;-52
2022/06/06 12:40:16;;;;;;;5.88;5.28;;;;;;;24.63;51.19;101456.53;4994470;28;20029;-49
2022/06/06 12:43:22;;;;;;;6.20;5.05;;;;;;;24.81;51.26;101447.13;4996806;28;20780;-52